sensor_id;sensor_type;location;lat;lon;timestamp;P1;durP1;ratioP1;P2;durP2;ratioP2
33792;SDS011;20105;48.764;9.178;2022-08-19T00:01:24;13.20;;;11.70;;
33792;SDS011;20105;48.764;9.178;2022-08-19T00:03:51;19.03;;;12.10;;
33792;SDS011;20105;48.764;9.178;2022-08-19T00:06:16;15.00;;;12.87;;
33792;SDS011;20105;48.764;9.178;2022-08-19T00:08:42;12.30;;;11.00;;
33792;SDS011;20105;48.764;9.178;2022-08-19T00:11:08;12.07;;;10.87;;
33792;SDS011;20105;48.764;9.178;2022-08-19T00:13:34;16.60;;;12.30;;
33792;SDS011;20105;48.764;9.178;2022-08-19T00:16:00;12.43;;;11.23;;
33792;SDS011;20105;48.764;9.178;2022-08-19T00:18:27;15.27;;;11.60;;
33792;SDS011;20105;48.764;9.178;2022-08-19T00:20:53;12.97;;;11.57;;
33792;SDS011;20105;48.764;9.178;2022-08-19T00:23:19;13.67;;;12.27;;
33792;SDS011;20105;48.764;9.178;2022-08-19T00:25:45;13.73;;;12.07;;
33792;SDS011;20105;48.764;9.178;2022-08-19T00:28:10;13.13;;;11.73;;
33792;SDS011;20105;48.764;9.178;2022-08-19T00:30:36;14.03;;;12.60;;
33792;SDS011;20105;48.764;9.178;2022-08-19T00:33:02;12.27;;;10.97;;
33792;SDS011;20105;48.764;9.178;2022-08-19T00:35:28;14.53;;;12.10;;
33792;SDS011;20105;48.764;9.178;2022-08-19T00:37:53;14.53;;;13.03;;
33792;SDS011;20105;48.764;9.178;2022-08-19T00:40:19;13.30;;;11.90;;
33792;SDS011;20105;48.764;9.178;2022-08-19T00:42:46;13.33;;;10.87;;
33792;SDS011;20105;48.764;9.178;2022-08-19T00:45:14;12.13;;;10.97;;
33792;SDS011;20105;48.764;9.178;2022-08-19T00:47:42;15.93;;;12.90;;
33792;SDS011;20105;48.764;9.178;2022-08-19T00:50:10;13.53;;;12.13;;
33792;SDS011;20105;48.764;9.178;2022-08-19T00:52:38;13.90;;;12.40;;
33792;SDS011;20105;48.764;9.178;2022-08-19T00:55:10;13.67;;;12.23;;
33792;SDS011;20105;48.764;9.178;2022-08-19T00:57:42;13.93;;;12.43;;
33792;SDS011;20105;48.764;9.178;2022-08-19T01:00:14;16.00;;;12.30;;
33792;SDS011;20105;48.764;9.178;2022-08-19T01:02:42;15.80;;;12.73;;
33792;SDS011;20105;48.764;9.178;2022-08-19T01:05:11;14.30;;;12.43;;
33792;SDS011;20105;48.764;9.178;2022-08-19T01:07:40;14.67;;;12.37;;
33792;SDS011;20105;48.764;9.178;2022-08-19T01:10:09;13.17;;;11.77;;
33792;SDS011;20105;48.764;9.178;2022-08-19T01:12:39;20.60;;;12.93;;
33792;SDS011;20105;48.764;9.178;2022-08-19T01:15:06;14.37;;;12.70;;
33792;SDS011;20105;48.764;9.178;2022-08-19T01:17:33;14.17;;;12.63;;
33792;SDS011;20105;48.764;9.178;2022-08-19T01:20:01;15.00;;;12.43;;
33792;SDS011;20105;48.764;9.178;2022-08-19T01:25:15;16.77;;;12.07;;
33792;SDS011;20105;48.764;9.178;2022-08-19T01:27:44;18.10;;;13.40;;
33792;SDS011;20105;48.764;9.178;2022-08-19T01:30:16;15.13;;;12.20;;
33792;SDS011;20105;48.764;9.178;2022-08-19T01:32:44;13.13;;;11.83;;
33792;SDS011;20105;48.764;9.178;2022-08-19T01:35:10;14.97;;;13.47;;
33792;SDS011;20105;48.764;9.178;2022-08-19T01:37:44;14.53;;;13.00;;
33792;SDS011;20105;48.764;9.178;2022-08-19T01:40:12;13.90;;;11.27;;
33792;SDS011;20105;48.764;9.178;2022-08-19T01:42:38;13.10;;;11.80;;
33792;SDS011;20105;48.764;9.178;2022-08-19T01:45:04;14.87;;;11.97;;
33792;SDS011;20105;48.764;9.178;2022-08-19T01:47:33;14.80;;;13.20;;
33792;SDS011;20105;48.764;9.178;2022-08-19T01:50:00;13.67;;;12.23;;
33792;SDS011;20105;48.764;9.178;2022-08-19T01:52:26;17.27;;;13.43;;
33792;SDS011;20105;48.764;9.178;2022-08-19T01:54:52;13.60;;;12.20;;
33792;SDS011;20105;48.764;9.178;2022-08-19T01:57:18;13.70;;;12.13;;
33792;SDS011;20105;48.764;9.178;2022-08-19T01:59:44;14.30;;;12.80;;
33792;SDS011;20105;48.764;9.178;2022-08-19T02:02:10;15.70;;;12.40;;
33792;SDS011;20105;48.764;9.178;2022-08-19T02:04:36;15.93;;;14.27;;
33792;SDS011;20105;48.764;9.178;2022-08-19T02:07:04;15.07;;;13.50;;
33792;SDS011;20105;48.764;9.178;2022-08-19T02:09:31;15.03;;;13.13;;
33792;SDS011;20105;48.764;9.178;2022-08-19T02:11:57;14.90;;;13.40;;
33792;SDS011;20105;48.764;9.178;2022-08-19T02:14:22;15.60;;;13.40;;
33792;SDS011;20105;48.764;9.178;2022-08-19T02:16:48;17.10;;;13.63;;
33792;SDS011;20105;48.764;9.178;2022-08-19T02:19:14;15.17;;;12.90;;
33792;SDS011;20105;48.764;9.178;2022-08-19T02:21:39;15.80;;;14.20;;
33792;SDS011;20105;48.764;9.178;2022-08-19T02:24:05;14.53;;;13.03;;
33792;SDS011;20105;48.764;9.178;2022-08-19T02:26:31;16.70;;;13.30;;
33792;SDS011;20105;48.764;9.178;2022-08-19T02:28:57;15.70;;;14.03;;
33792;SDS011;20105;48.764;9.178;2022-08-19T02:31:24;18.13;;;15.33;;
33792;SDS011;20105;48.764;9.178;2022-08-19T02:33:50;16.10;;;14.30;;
33792;SDS011;20105;48.764;9.178;2022-08-19T02:36:18;16.83;;;14.57;;
33792;SDS011;20105;48.764;9.178;2022-08-19T02:38:44;16.30;;;14.17;;
33792;SDS011;20105;48.764;9.178;2022-08-19T02:41:16;19.10;;;14.53;;
33792;SDS011;20105;48.764;9.178;2022-08-19T02:43:44;20.13;;;14.63;;
33792;SDS011;20105;48.764;9.178;2022-08-19T02:46:14;18.30;;;16.30;;
33792;SDS011;20105;48.764;9.178;2022-08-19T02:48:43;19.17;;;15.67;;
33792;SDS011;20105;48.764;9.178;2022-08-19T02:51:08;19.50;;;16.17;;
33792;SDS011;20105;48.764;9.178;2022-08-19T02:53:41;18.00;;;15.33;;
33792;SDS011;20105;48.764;9.178;2022-08-19T02:56:07;18.60;;;15.37;;
33792;SDS011;20105;48.764;9.178;2022-08-19T02:58:33;18.37;;;15.20;;
33792;SDS011;20105;48.764;9.178;2022-08-19T03:00:58;18.00;;;15.47;;
33792;SDS011;20105;48.764;9.178;2022-08-19T03:03:24;18.87;;;15.17;;
33792;SDS011;20105;48.764;9.178;2022-08-19T03:05:50;19.37;;;17.27;;
33792;SDS011;20105;48.764;9.178;2022-08-19T03:08:16;18.20;;;16.30;;
33792;SDS011;20105;48.764;9.178;2022-08-19T03:10:43;19.53;;;15.80;;
33792;SDS011;20105;48.764;9.178;2022-08-19T03:13:15;18.10;;;14.60;;
33792;SDS011;20105;48.764;9.178;2022-08-19T03:15:43;18.37;;;16.33;;
33792;SDS011;20105;48.764;9.178;2022-08-19T03:18:10;22.07;;;17.10;;
33792;SDS011;20105;48.764;9.178;2022-08-19T03:20:44;22.83;;;17.43;;
33792;SDS011;20105;48.764;9.178;2022-08-19T03:23:12;25.20;;;18.53;;
33792;SDS011;20105;48.764;9.178;2022-08-19T03:25:39;20.30;;;16.33;;
33792;SDS011;20105;48.764;9.178;2022-08-19T03:28:08;25.60;;;18.80;;
33792;SDS011;20105;48.764;9.178;2022-08-19T03:30:38;21.23;;;19.03;;
33792;SDS011;20105;48.764;9.178;2022-08-19T03:33:08;21.60;;;17.90;;
33792;SDS011;20105;48.764;9.178;2022-08-19T03:35:34;23.27;;;16.43;;
33792;SDS011;20105;48.764;9.178;2022-08-19T03:38:04;19.37;;;16.60;;
33792;SDS011;20105;48.764;9.178;2022-08-19T03:40:31;22.67;;;17.93;;
33792;SDS011;20105;48.764;9.178;2022-08-19T03:42:58;21.67;;;18.07;;
33792;SDS011;20105;48.764;9.178;2022-08-19T03:45:23;25.30;;;18.80;;
33792;SDS011;20105;48.764;9.178;2022-08-19T03:47:49;22.67;;;18.13;;
33792;SDS011;20105;48.764;9.178;2022-08-19T03:50:15;21.07;;;18.00;;
33792;SDS011;20105;48.764;9.178;2022-08-19T03:52:41;21.10;;;19.00;;
33792;SDS011;20105;48.764;9.178;2022-08-19T03:55:07;22.87;;;19.20;;
33792;SDS011;20105;48.764;9.178;2022-08-19T03:57:33;21.40;;;16.60;;
33792;SDS011;20105;48.764;9.178;2022-08-19T03:59:59;24.00;;;18.30;;
33792;SDS011;20105;48.764;9.178;2022-08-19T04:02:25;24.57;;;18.93;;
33792;SDS011;20105;48.764;9.178;2022-08-19T04:04:52;26.87;;;19.07;;
33792;SDS011;20105;48.764;9.178;2022-08-19T04:07:22;22.57;;;19.00;;
33792;SDS011;20105;48.764;9.178;2022-08-19T04:09:48;24.70;;;19.27;;
33792;SDS011;20105;48.764;9.178;2022-08-19T04:12:14;21.90;;;17.70;;
33792;SDS011;20105;48.764;9.178;2022-08-19T04:14:41;24.90;;;19.33;;
33792;SDS011;20105;48.764;9.178;2022-08-19T04:17:07;22.20;;;18.70;;
33792;SDS011;20105;48.764;9.178;2022-08-19T04:19:33;19.67;;;17.63;;
33792;SDS011;20105;48.764;9.178;2022-08-19T04:21:59;22.83;;;19.00;;
33792;SDS011;20105;48.764;9.178;2022-08-19T04:24:25;20.67;;;18.20;;
33792;SDS011;20105;48.764;9.178;2022-08-19T04:26:52;25.17;;;19.90;;
33792;SDS011;20105;48.764;9.178;2022-08-19T04:29:19;24.40;;;18.70;;
33792;SDS011;20105;48.764;9.178;2022-08-19T04:31:47;24.70;;;20.03;;
33792;SDS011;20105;48.764;9.178;2022-08-19T04:34:15;25.20;;;19.13;;
33792;SDS011;20105;48.764;9.178;2022-08-19T04:36:44;23.20;;;18.33;;
33792;SDS011;20105;48.764;9.178;2022-08-19T04:39:12;22.47;;;18.70;;
33792;SDS011;20105;48.764;9.178;2022-08-19T04:41:40;22.83;;;18.57;;
33792;SDS011;20105;48.764;9.178;2022-08-19T04:44:24;27.63;;;21.33;;
33792;SDS011;20105;48.764;9.178;2022-08-19T04:46:51;26.77;;;20.77;;
33792;SDS011;20105;48.764;9.178;2022-08-19T04:49:17;24.60;;;20.47;;
33792;SDS011;20105;48.764;9.178;2022-08-19T04:51:46;32.20;;;20.70;;
33792;SDS011;20105;48.764;9.178;2022-08-19T04:54:13;24.40;;;20.07;;
33792;SDS011;20105;48.764;9.178;2022-08-19T04:56:41;23.10;;;18.93;;
33792;SDS011;20105;48.764;9.178;2022-08-19T04:59:06;26.57;;;20.83;;
33792;SDS011;20105;48.764;9.178;2022-08-19T05:01:33;26.20;;;21.07;;
33792;SDS011;20105;48.764;9.178;2022-08-19T05:04:01;24.80;;;20.80;;
33792;SDS011;20105;48.764;9.178;2022-08-19T05:06:29;30.40;;;21.80;;
33792;SDS011;20105;48.764;9.178;2022-08-19T05:08:59;28.30;;;21.70;;
33792;SDS011;20105;48.764;9.178;2022-08-19T05:11:26;29.90;;;22.53;;
33792;SDS011;20105;48.764;9.178;2022-08-19T05:13:53;25.57;;;21.60;;
33792;SDS011;20105;48.764;9.178;2022-08-19T05:16:21;30.60;;;21.10;;
33792;SDS011;20105;48.764;9.178;2022-08-19T05:18:47;26.83;;;20.50;;
33792;SDS011;20105;48.764;9.178;2022-08-19T05:21:32;24.97;;;20.27;;
33792;SDS011;20105;48.764;9.178;2022-08-19T05:24:18;26.23;;;19.70;;
33792;SDS011;20105;48.764;9.178;2022-08-19T05:26:47;21.87;;;19.30;;
33792;SDS011;20105;48.764;9.178;2022-08-19T05:29:14;23.40;;;20.70;;
33792;SDS011;20105;48.764;9.178;2022-08-19T05:31:42;22.10;;;18.07;;
33792;SDS011;20105;48.764;9.178;2022-08-19T05:34:07;27.57;;;18.37;;
33792;SDS011;20105;48.764;9.178;2022-08-19T05:36:35;24.80;;;19.97;;
33792;SDS011;20105;48.764;9.178;2022-08-19T05:39:05;28.43;;;18.93;;
33792;SDS011;20105;48.764;9.178;2022-08-19T05:41:31;24.83;;;20.90;;
33792;SDS011;20105;48.764;9.178;2022-08-19T05:43:57;26.10;;;19.63;;
33792;SDS011;20105;48.764;9.178;2022-08-19T05:46:25;31.63;;;21.70;;
33792;SDS011;20105;48.764;9.178;2022-08-19T05:48:51;26.13;;;20.20;;
33792;SDS011;20105;48.764;9.178;2022-08-19T05:51:16;22.10;;;17.30;;
33792;SDS011;20105;48.764;9.178;2022-08-19T05:53:42;24.87;;;18.77;;
33792;SDS011;20105;48.764;9.178;2022-08-19T05:56:11;20.33;;;18.20;;
33792;SDS011;20105;48.764;9.178;2022-08-19T05:58:39;25.60;;;20.07;;
33792;SDS011;20105;48.764;9.178;2022-08-19T06:01:09;22.10;;;17.73;;
33792;SDS011;20105;48.764;9.178;2022-08-19T06:03:40;23.67;;;19.00;;
33792;SDS011;20105;48.764;9.178;2022-08-19T06:06:09;24.13;;;19.47;;
33792;SDS011;20105;48.764;9.178;2022-08-19T06:08:39;23.17;;;19.13;;
33792;SDS011;20105;48.764;9.178;2022-08-19T06:13:45;23.27;;;19.20;;
33792;SDS011;20105;48.764;9.178;2022-08-19T06:16:15;24.87;;;18.50;;
33792;SDS011;20105;48.764;9.178;2022-08-19T06:18:45;22.93;;;20.40;;
33792;SDS011;20105;48.764;9.178;2022-08-19T06:21:11;27.67;;;21.13;;
33792;SDS011;20105;48.764;9.178;2022-08-19T06:23:37;28.17;;;19.80;;
33792;SDS011;20105;48.764;9.178;2022-08-19T06:26:04;25.80;;;19.70;;
33792;SDS011;20105;48.764;9.178;2022-08-19T06:28:29;24.20;;;18.10;;
33792;SDS011;20105;48.764;9.178;2022-08-19T06:30:55;26.20;;;19.60;;
33792;SDS011;20105;48.764;9.178;2022-08-19T06:33:20;24.20;;;19.67;;
33792;SDS011;20105;48.764;9.178;2022-08-19T06:35:46;25.60;;;18.90;;
33792;SDS011;20105;48.764;9.178;2022-08-19T06:38:12;23.60;;;19.20;;
33792;SDS011;20105;48.764;9.178;2022-08-19T06:40:41;21.43;;;19.17;;
33792;SDS011;20105;48.764;9.178;2022-08-19T06:43:07;26.00;;;20.70;;
33792;SDS011;20105;48.764;9.178;2022-08-19T06:45:32;24.13;;;21.50;;
33792;SDS011;20105;48.764;9.178;2022-08-19T06:47:59;21.40;;;18.53;;
33792;SDS011;20105;48.764;9.178;2022-08-19T06:50:24;22.83;;;19.83;;
33792;SDS011;20105;48.764;9.178;2022-08-19T06:52:50;23.07;;;19.47;;
33792;SDS011;20105;48.764;9.178;2022-08-19T06:55:16;35.60;;;19.33;;
33792;SDS011;20105;48.764;9.178;2022-08-19T06:57:42;22.60;;;18.73;;
33792;SDS011;20105;48.764;9.178;2022-08-19T07:00:08;23.90;;;19.53;;
33792;SDS011;20105;48.764;9.178;2022-08-19T07:02:40;27.73;;;20.10;;
33792;SDS011;20105;48.764;9.178;2022-08-19T07:05:07;23.27;;;20.03;;
33792;SDS011;20105;48.764;9.178;2022-08-19T07:07:33;25.73;;;21.20;;
33792;SDS011;20105;48.764;9.178;2022-08-19T07:09:59;26.40;;;19.57;;
33792;SDS011;20105;48.764;9.178;2022-08-19T07:12:25;23.17;;;19.43;;
33792;SDS011;20105;48.764;9.178;2022-08-19T07:14:57;25.17;;;20.43;;
33792;SDS011;20105;48.764;9.178;2022-08-19T07:17:23;24.77;;;19.87;;
33792;SDS011;20105;48.764;9.178;2022-08-19T07:19:48;21.17;;;18.37;;
33792;SDS011;20105;48.764;9.178;2022-08-19T07:22:15;21.00;;;17.87;;
33792;SDS011;20105;48.764;9.178;2022-08-19T07:24:40;24.63;;;20.33;;
33792;SDS011;20105;48.764;9.178;2022-08-19T07:27:06;23.57;;;18.90;;
33792;SDS011;20105;48.764;9.178;2022-08-19T07:29:33;23.63;;;21.00;;
33792;SDS011;20105;48.764;9.178;2022-08-19T07:32:00;26.20;;;19.40;;
33792;SDS011;20105;48.764;9.178;2022-08-19T07:34:27;29.27;;;21.10;;
33792;SDS011;20105;48.764;9.178;2022-08-19T07:36:55;30.03;;;19.97;;
33792;SDS011;20105;48.764;9.178;2022-08-19T07:39:23;23.80;;;18.97;;
33792;SDS011;20105;48.764;9.178;2022-08-19T07:41:51;29.67;;;20.37;;
33792;SDS011;20105;48.764;9.178;2022-08-19T07:44:18;25.17;;;20.00;;
33792;SDS011;20105;48.764;9.178;2022-08-19T07:46:47;21.20;;;18.57;;
33792;SDS011;20105;48.764;9.178;2022-08-19T07:49:16;22.57;;;19.10;;
33792;SDS011;20105;48.764;9.178;2022-08-19T07:51:44;20.83;;;17.77;;
33792;SDS011;20105;48.764;9.178;2022-08-19T07:54:19;22.37;;;18.30;;
33792;SDS011;20105;48.764;9.178;2022-08-19T07:56:46;18.67;;;16.77;;
33792;SDS011;20105;48.764;9.178;2022-08-19T07:59:11;20.23;;;17.50;;
33792;SDS011;20105;48.764;9.178;2022-08-19T08:01:37;19.50;;;16.50;;
33792;SDS011;20105;48.764;9.178;2022-08-19T08:04:05;20.63;;;18.43;;
33792;SDS011;20105;48.764;9.178;2022-08-19T08:06:50;21.93;;;17.63;;
33792;SDS011;20105;48.764;9.178;2022-08-19T08:09:36;23.30;;;18.50;;
33792;SDS011;20105;48.764;9.178;2022-08-19T08:12:06;20.93;;;16.27;;
33792;SDS011;20105;48.764;9.178;2022-08-19T08:14:34;18.00;;;16.10;;
33792;SDS011;20105;48.764;9.178;2022-08-19T08:17:03;20.83;;;17.73;;
33792;SDS011;20105;48.764;9.178;2022-08-19T08:19:30;20.47;;;18.10;;
33792;SDS011;20105;48.764;9.178;2022-08-19T08:21:56;24.83;;;19.50;;
33792;SDS011;20105;48.764;9.178;2022-08-19T08:24:24;24.00;;;18.37;;
33792;SDS011;20105;48.764;9.178;2022-08-19T08:26:51;24.67;;;19.37;;
33792;SDS011;20105;48.764;9.178;2022-08-19T08:29:16;28.60;;;19.47;;
33792;SDS011;20105;48.764;9.178;2022-08-19T08:31:44;26.57;;;20.23;;
33792;SDS011;20105;48.764;9.178;2022-08-19T08:34:10;23.37;;;20.37;;
33792;SDS011;20105;48.764;9.178;2022-08-19T08:36:43;27.03;;;21.90;;
33792;SDS011;20105;48.764;9.178;2022-08-19T08:39:11;25.23;;;20.43;;
33792;SDS011;20105;48.764;9.178;2022-08-19T08:44:11;20.23;;;18.13;;
33792;SDS011;20105;48.764;9.178;2022-08-19T08:46:42;21.77;;;19.27;;
33792;SDS011;20105;48.764;9.178;2022-08-19T08:49:29;22.17;;;19.40;;
33792;SDS011;20105;48.764;9.178;2022-08-19T08:52:26;22.13;;;19.73;;
33792;SDS011;20105;48.764;9.178;2022-08-19T08:55:00;26.20;;;19.40;;
33792;SDS011;20105;48.764;9.178;2022-08-19T08:57:36;22.13;;;19.70;;
33792;SDS011;20105;48.764;9.178;2022-08-19T09:00:21;25.80;;;21.83;;
33792;SDS011;20105;48.764;9.178;2022-08-19T09:02:53;23.70;;;19.43;;
33792;SDS011;20105;48.764;9.178;2022-08-19T09:05:19;26.97;;;21.33;;
33792;SDS011;20105;48.764;9.178;2022-08-19T09:07:50;22.37;;;17.63;;
33792;SDS011;20105;48.764;9.178;2022-08-19T09:10:36;19.37;;;17.17;;
33792;SDS011;20105;48.764;9.178;2022-08-19T09:13:13;21.70;;;19.30;;
33792;SDS011;20105;48.764;9.178;2022-08-19T09:16:06;22.73;;;19.20;;
33792;SDS011;20105;48.764;9.178;2022-08-19T09:18:39;19.63;;;17.50;;
33792;SDS011;20105;48.764;9.178;2022-08-19T09:21:11;22.63;;;17.83;;
33792;SDS011;20105;48.764;9.178;2022-08-19T09:23:36;18.10;;;16.20;;
33792;SDS011;20105;48.764;9.178;2022-08-19T09:26:06;32.37;;;18.90;;
33792;SDS011;20105;48.764;9.178;2022-08-19T09:28:38;18.97;;;16.97;;
33792;SDS011;20105;48.764;9.178;2022-08-19T09:31:09;19.90;;;17.30;;
33792;SDS011;20105;48.764;9.178;2022-08-19T09:33:36;23.23;;;17.97;;
33792;SDS011;20105;48.764;9.178;2022-08-19T09:36:04;19.43;;;17.37;;
33792;SDS011;20105;48.764;9.178;2022-08-19T09:38:35;19.50;;;16.20;;
33792;SDS011;20105;48.764;9.178;2022-08-19T09:41:02;18.43;;;16.53;;
33792;SDS011;20105;48.764;9.178;2022-08-19T09:43:29;16.10;;;14.40;;
33792;SDS011;20105;48.764;9.178;2022-08-19T09:45:56;19.93;;;16.43;;
33792;SDS011;20105;48.764;9.178;2022-08-19T09:48:21;15.67;;;14.10;;
33792;SDS011;20105;48.764;9.178;2022-08-19T09:50:47;21.80;;;15.87;;
33792;SDS011;20105;48.764;9.178;2022-08-19T09:53:13;17.20;;;15.20;;
33792;SDS011;20105;48.764;9.178;2022-08-19T09:55:41;16.50;;;14.20;;
33792;SDS011;20105;48.764;9.178;2022-08-19T09:58:08;15.83;;;14.13;;
33792;SDS011;20105;48.764;9.178;2022-08-19T10:00:34;16.80;;;14.40;;
33792;SDS011;20105;48.764;9.178;2022-08-19T10:03:03;20.33;;;14.57;;
33792;SDS011;20105;48.764;9.178;2022-08-19T10:05:28;15.53;;;14.00;;
33792;SDS011;20105;48.764;9.178;2022-08-19T10:08:12;14.47;;;12.37;;
33792;SDS011;20105;48.764;9.178;2022-08-19T10:10:38;18.80;;;13.27;;
33792;SDS011;20105;48.764;9.178;2022-08-19T10:13:04;16.93;;;13.20;;
33792;SDS011;20105;48.764;9.178;2022-08-19T10:15:29;14.30;;;12.90;;
33792;SDS011;20105;48.764;9.178;2022-08-19T10:17:55;16.97;;;13.63;;
33792;SDS011;20105;48.764;9.178;2022-08-19T10:20:21;18.87;;;14.37;;
33792;SDS011;20105;48.764;9.178;2022-08-19T10:22:47;15.27;;;13.73;;
33792;SDS011;20105;48.764;9.178;2022-08-19T10:25:14;15.80;;;14.10;;
33792;SDS011;20105;48.764;9.178;2022-08-19T10:27:41;17.33;;;14.27;;
33792;SDS011;20105;48.764;9.178;2022-08-19T10:30:07;16.57;;;12.60;;
33792;SDS011;20105;48.764;9.178;2022-08-19T10:32:33;13.10;;;11.87;;
33792;SDS011;20105;48.764;9.178;2022-08-19T10:34:59;17.47;;;13.40;;
33792;SDS011;20105;48.764;9.178;2022-08-19T10:37:25;13.23;;;11.93;;
33792;SDS011;20105;48.764;9.178;2022-08-19T10:39:51;13.47;;;12.17;;
33792;SDS011;20105;48.764;9.178;2022-08-19T10:42:16;14.23;;;12.67;;
33792;SDS011;20105;48.764;9.178;2022-08-19T10:44:43;15.43;;;12.97;;
33792;SDS011;20105;48.764;9.178;2022-08-19T10:47:12;18.87;;;13.07;;
33792;SDS011;20105;48.764;9.178;2022-08-19T10:49:37;15.80;;;12.50;;
33792;SDS011;20105;48.764;9.178;2022-08-19T10:52:23;17.57;;;12.07;;
33792;SDS011;20105;48.764;9.178;2022-08-19T10:55:04;13.90;;;12.23;;
33792;SDS011;20105;48.764;9.178;2022-08-19T10:57:49;12.50;;;11.23;;
33792;SDS011;20105;48.764;9.178;2022-08-19T11:00:16;13.00;;;11.20;;
33792;SDS011;20105;48.764;9.178;2022-08-19T11:02:42;16.97;;;11.37;;
33792;SDS011;20105;48.764;9.178;2022-08-19T11:05:08;11.70;;;10.50;;
33792;SDS011;20105;48.764;9.178;2022-08-19T11:07:38;11.67;;;10.67;;
33792;SDS011;20105;48.764;9.178;2022-08-19T11:10:04;10.80;;;9.80;;
33792;SDS011;20105;48.764;9.178;2022-08-19T11:12:30;15.70;;;9.63;;
33792;SDS011;20105;48.764;9.178;2022-08-19T11:14:57;12.40;;;11.20;;
33792;SDS011;20105;48.764;9.178;2022-08-19T11:17:23;12.57;;;10.00;;
33792;SDS011;20105;48.764;9.178;2022-08-19T11:19:49;12.30;;;10.20;;
33792;SDS011;20105;48.764;9.178;2022-08-19T11:22:15;11.67;;;9.57;;
33792;SDS011;20105;48.764;9.178;2022-08-19T11:24:40;10.87;;;9.77;;
33792;SDS011;20105;48.764;9.178;2022-08-19T11:27:07;11.07;;;10.07;;
33792;SDS011;20105;48.764;9.178;2022-08-19T11:29:35;11.80;;;10.60;;
33792;SDS011;20105;48.764;9.178;2022-08-19T11:32:05;10.83;;;9.73;;
33792;SDS011;20105;48.764;9.178;2022-08-19T11:34:34;10.53;;;9.43;;
33792;SDS011;20105;48.764;9.178;2022-08-19T11:37:00;11.17;;;9.80;;
33792;SDS011;20105;48.764;9.178;2022-08-19T11:39:29;11.27;;;9.70;;
33792;SDS011;20105;48.764;9.178;2022-08-19T11:41:57;10.10;;;9.17;;
33792;SDS011;20105;48.764;9.178;2022-08-19T11:44:27;10.60;;;9.10;;
33792;SDS011;20105;48.764;9.178;2022-08-19T11:46:55;10.23;;;9.23;;
33792;SDS011;20105;48.764;9.178;2022-08-19T11:49:21;10.90;;;9.23;;
33792;SDS011;20105;48.764;9.178;2022-08-19T11:51:47;9.03;;;8.13;;
33792;SDS011;20105;48.764;9.178;2022-08-19T11:54:15;10.43;;;9.43;;
33792;SDS011;20105;48.764;9.178;2022-08-19T11:56:42;10.57;;;9.57;;
33792;SDS011;20105;48.764;9.178;2022-08-19T11:59:08;10.20;;;8.97;;
33792;SDS011;20105;48.764;9.178;2022-08-19T12:01:37;9.73;;;8.50;;
33792;SDS011;20105;48.764;9.178;2022-08-19T12:04:02;10.50;;;9.20;;
33792;SDS011;20105;48.764;9.178;2022-08-19T12:06:30;9.50;;;8.60;;
33792;SDS011;20105;48.764;9.178;2022-08-19T12:08:58;9.87;;;7.90;;
33792;SDS011;20105;48.764;9.178;2022-08-19T12:11:25;9.83;;;8.93;;
33792;SDS011;20105;48.764;9.178;2022-08-19T12:13:52;11.37;;;7.97;;
33792;SDS011;20105;48.764;9.178;2022-08-19T12:16:19;11.40;;;7.93;;
33792;SDS011;20105;48.764;9.178;2022-08-19T12:18:48;10.63;;;9.60;;
33792;SDS011;20105;48.764;9.178;2022-08-19T12:21:16;9.83;;;8.73;;
33792;SDS011;20105;48.764;9.178;2022-08-19T12:23:47;10.10;;;9.10;;
33792;SDS011;20105;48.764;9.178;2022-08-19T12:26:16;10.03;;;9.03;;
33792;SDS011;20105;48.764;9.178;2022-08-19T12:28:42;10.37;;;8.10;;
33792;SDS011;20105;48.764;9.178;2022-08-19T12:31:08;9.63;;;8.63;;
33792;SDS011;20105;48.764;9.178;2022-08-19T12:33:36;10.30;;;9.20;;
33792;SDS011;20105;48.764;9.178;2022-08-19T12:36:03;8.93;;;7.50;;
33792;SDS011;20105;48.764;9.178;2022-08-19T12:38:31;8.67;;;7.80;;
33792;SDS011;20105;48.764;9.178;2022-08-19T12:40:57;13.00;;;8.50;;
33792;SDS011;20105;48.764;9.178;2022-08-19T12:43:23;10.33;;;9.43;;
33792;SDS011;20105;48.764;9.178;2022-08-19T12:45:49;10.13;;;8.60;;
33792;SDS011;20105;48.764;9.178;2022-08-19T12:48:15;12.20;;;9.43;;
33792;SDS011;20105;48.764;9.178;2022-08-19T12:50:44;11.00;;;9.03;;
33792;SDS011;20105;48.764;9.178;2022-08-19T12:53:10;10.90;;;9.73;;
33792;SDS011;20105;48.764;9.178;2022-08-19T12:55:36;9.60;;;8.60;;
33792;SDS011;20105;48.764;9.178;2022-08-19T12:58:02;10.57;;;8.00;;
33792;SDS011;20105;48.764;9.178;2022-08-19T13:00:28;13.13;;;9.03;;
33792;SDS011;20105;48.764;9.178;2022-08-19T13:02:55;21.00;;;9.30;;
33792;SDS011;20105;48.764;9.178;2022-08-19T13:05:23;9.73;;;8.83;;
33792;SDS011;20105;48.764;9.178;2022-08-19T13:07:55;11.17;;;8.83;;
33792;SDS011;20105;48.764;9.178;2022-08-19T13:10:23;9.37;;;8.47;;
33792;SDS011;20105;48.764;9.178;2022-08-19T13:12:52;10.67;;;9.70;;
33792;SDS011;20105;48.764;9.178;2022-08-19T13:15:19;10.17;;;9.03;;
33792;SDS011;20105;48.764;9.178;2022-08-19T13:17:46;10.60;;;9.60;;
33792;SDS011;20105;48.764;9.178;2022-08-19T13:20:14;11.07;;;9.97;;
33792;SDS011;20105;48.764;9.178;2022-08-19T13:22:40;11.83;;;10.00;;
33792;SDS011;20105;48.764;9.178;2022-08-19T13:25:06;11.57;;;10.47;;
33792;SDS011;20105;48.764;9.178;2022-08-19T13:27:32;13.03;;;11.63;;
33792;SDS011;20105;48.764;9.178;2022-08-19T13:29:58;15.40;;;13.40;;
33792;SDS011;20105;48.764;9.178;2022-08-19T13:32:43;19.07;;;15.83;;
33792;SDS011;20105;48.764;9.178;2022-08-19T13:35:27;17.13;;;15.30;;
33792;SDS011;20105;48.764;9.178;2022-08-19T13:37:52;19.90;;;17.80;;
33792;SDS011;20105;48.764;9.178;2022-08-19T13:40:19;17.20;;;15.50;;
33792;SDS011;20105;48.764;9.178;2022-08-19T13:42:49;19.20;;;14.73;;
33792;SDS011;20105;48.764;9.178;2022-08-19T13:45:17;17.10;;;15.20;;
33792;SDS011;20105;48.764;9.178;2022-08-19T13:47:45;20.90;;;17.17;;
33792;SDS011;20105;48.764;9.178;2022-08-19T13:50:13;21.77;;;18.70;;
33792;SDS011;20105;48.764;9.178;2022-08-19T13:52:41;25.23;;;20.37;;
33792;SDS011;20105;48.764;9.178;2022-08-19T13:55:08;25.97;;;20.17;;
33792;SDS011;20105;48.764;9.178;2022-08-19T13:57:35;23.10;;;20.30;;
33792;SDS011;20105;48.764;9.178;2022-08-19T14:00:04;28.17;;;23.17;;
33792;SDS011;20105;48.764;9.178;2022-08-19T14:02:36;28.00;;;23.90;;
33792;SDS011;20105;48.764;9.178;2022-08-19T14:05:03;29.23;;;23.90;;
33792;SDS011;20105;48.764;9.178;2022-08-19T14:07:33;30.33;;;24.80;;
33792;SDS011;20105;48.764;9.178;2022-08-19T14:09:59;30.33;;;25.63;;
33792;SDS011;20105;48.764;9.178;2022-08-19T14:12:24;28.57;;;25.33;;
33792;SDS011;20105;48.764;9.178;2022-08-19T14:14:50;32.77;;;26.10;;
33792;SDS011;20105;48.764;9.178;2022-08-19T14:17:16;31.10;;;26.30;;
33792;SDS011;20105;48.764;9.178;2022-08-19T14:19:41;33.00;;;24.70;;
33792;SDS011;20105;48.764;9.178;2022-08-19T14:22:07;30.20;;;25.47;;
33792;SDS011;20105;48.764;9.178;2022-08-19T14:24:33;26.93;;;22.30;;
33792;SDS011;20105;48.764;9.178;2022-08-19T14:26:59;32.83;;;24.10;;
33792;SDS011;20105;48.764;9.178;2022-08-19T14:29:25;29.57;;;23.30;;
33792;SDS011;20105;48.764;9.178;2022-08-19T14:31:51;25.37;;;21.63;;
33792;SDS011;20105;48.764;9.178;2022-08-19T14:34:17;25.57;;;21.00;;
33792;SDS011;20105;48.764;9.178;2022-08-19T14:36:42;24.27;;;21.20;;